Time;durP1;ratioP1;P1;durP2;ratioP2;P2;SDS_P1;SDS_P2;PMS_P1;PMS_P2;Temp;Humidity;BMP_temperature;BMP_pressure;BME280_temperature;BME280_humidity;BME280_pressure;Samples;Min_cycle;Max_cycle;Signal;HPM_P1;HPM_P2
2021/03/19 00:00:01;;;;;;;41.22;24.73;;;;;;;0.18;100.00;100988.19;5021740;28;20049;-76
2021/03/19 00:02:26;;;;;;;40.97;24.00;;;;;;;0.20;100.00;100989.72;5007292;28;20030;-76
2021/03/19 00:04:52;;;;;;;41.50;23.42;;;;;;;0.13;100.00;100986.00;5008645;28;20041;-76
2021/03/19 00:07:17;;;;;;;33.05;18.60;;;;;;;-0.15;100.00;100989.28;5021135;28;20025;-76
2021/03/19 00:09:43;;;;;;;31.30;18.45;;;;;;;-0.10;100.00;100982.72;5022120;28;20029;-76
2021/03/19 00:12:09;;;;;;;29.10;17.85;;;;;;;-0.43;100.00;100980.34;5014221;28;20482;-76
2021/03/19 00:14:35;;;;;;;30.30;18.33;;;;;;;-0.38;100.00;100981.63;5023316;28;20041;-76
2021/03/19 00:17:00;;;;;;;35.03;21.17;;;;;;;-0.36;100.00;100984.13;5020707;28;20030;-77
2021/03/19 00:19:26;;;;;;;37.45;22.35;;;;;;;-0.49;100.00;100989.50;5019555;28;20025;-76
2021/03/19 00:21:51;;;;;;;36.58;20.63;;;;;;;-0.43;100.00;100978.56;5016712;28;20387;-76
2021/03/19 00:24:17;;;;;;;31.58;18.75;;;;;;;-0.47;100.00;100972.78;5004833;28;20088;-76
2021/03/19 00:26:42;;;;;;;33.00;19.90;;;;;;;-0.46;100.00;100977.03;5003880;28;20067;-75
2021/03/19 00:29:09;;;;;;;36.03;19.40;;;;;;;-0.53;100.00;100978.50;5020895;28;20026;-75
2021/03/19 00:31:34;;;;;;;31.02;19.40;;;;;;;-0.61;100.00;100974.88;4998421;28;20041;-76
2021/03/19 00:33:59;;;;;;;31.95;18.35;;;;;;;-0.72;100.00;100968.75;4995717;28;20440;-76
2021/03/19 00:36:25;;;;;;;34.80;19.73;;;;;;;-0.82;100.00;100969.63;5003665;28;20120;-76
2021/03/19 00:38:50;;;;;;;29.65;18.42;;;;;;;-0.86;100.00;100971.66;5003272;28;20063;-76
2021/03/19 00:41:16;;;;;;;34.40;21.05;;;;;;;-0.87;100.00;100966.59;5022867;28;20121;-79
2021/03/19 00:43:41;;;;;;;37.97;22.55;;;;;;;-0.79;100.00;100967.59;5035803;28;20037;-76
2021/03/19 00:46:06;;;;;;;34.47;21.35;;;;;;;-0.92;100.00;100961.75;5021938;28;20029;-76
2021/03/19 00:48:32;;;;;;;36.63;22.05;;;;;;;-0.96;100.00;100961.16;5010798;28;20030;-76
2021/03/19 00:50:57;;;;;;;39.90;23.95;;;;;;;-1.12;100.00;100960.78;5002085;28;20030;-76
2021/03/19 00:53:23;;;;;;;36.17;24.35;;;;;;;-1.16;100.00;100957.56;4994251;28;20040;-76
2021/03/19 00:55:51;;;;;;;32.10;21.17;;;;;;;-1.35;100.00;100952.19;5006546;28;20465;-76
2021/03/19 00:58:16;;;;;;;38.40;22.50;;;;;;;-1.25;100.00;100955.69;5020298;28;20831;-76
2021/03/19 01:00:42;;;;;;;36.90;22.30;;;;;;;-1.19;100.00;100947.38;5062858;22;20672;-91
2021/03/19 01:03:08;;;;;;;36.45;20.60;;;;;;;-1.31;100.00;100956.19;5070210;28;20422;-91
2021/03/19 01:05:40;;;;;;;36.08;20.85;;;;;;;-1.42;100.00;100956.25;5064446;28;20081;-91
2021/03/19 01:08:06;;;;;;;36.75;20.67;;;;;;;-1.40;100.00;100955.16;5063530;28;20029;-91
2021/03/19 01:10:46;;;;;;;34.47;18.85;;;;;;;-1.36;100.00;100950.53;5064294;28;20029;-90
2021/03/19 01:13:13;;;;;;;34.35;19.90;;;;;;;-1.30;100.00;100952.66;5061861;28;20091;-90
2021/03/19 01:15:39;;;;;;;33.05;18.58;;;;;;;-1.41;100.00;100952.69;5062282;28;20470;-90
2021/03/19 01:18:08;;;;;;;35.53;19.95;;;;;;;-1.66;100.00;100953.81;5083877;28;20038;-90
2021/03/19 01:20:36;;;;;;;34.40;20.05;;;;;;;-1.57;100.00;100958.28;5065877;28;20040;-90
2021/03/19 01:23:02;;;;;;;37.35;20.15;;;;;;;-1.42;100.00;100958.84;5058013;28;20040;-90
2021/03/19 01:25:28;;;;;;;35.95;19.70;;;;;;;-1.35;100.00;100962.59;5066601;28;20028;-90
2021/03/19 01:27:54;;;;;;;39.20;20.85;;;;;;;-1.61;100.00;100952.47;5075170;28;20032;-89
2021/03/19 01:30:25;;;;;;;45.65;25.98;;;;;;;-1.44;100.00;100953.75;5081267;28;20028;-90
2021/03/19 01:32:51;;;;;;;36.75;21.55;;;;;;;-1.36;100.00;100950.53;5078728;28;20028;-91
2021/03/19 01:35:20;;;;;;;43.15;22.48;;;;;;;-1.47;100.00;100963.59;5066632;28;20115;-90
2021/03/19 01:37:47;;;;;;;35.03;18.63;;;;;;;-1.59;100.00;100954.97;5062363;28;20036;-90
2021/03/19 01:40:14;;;;;;;39.88;21.50;;;;;;;-1.53;100.00;100951.03;5074415;28;20111;-89
2021/03/19 01:42:42;;;;;;;41.97;23.05;;;;;;;-1.41;100.00;100953.50;5070314;28;20089;-90
2021/03/19 01:45:07;;;;;;;41.80;23.67;;;;;;;-1.49;100.00;100945.47;5061984;28;20517;-90
2021/03/19 01:48:10;;;;;;;51.33;26.15;;;;;;;-1.53;100.00;100951.88;5059763;28;20025;-91
2021/03/19 01:51:13;;;;;;;34.78;20.30;;;;;;;-1.59;100.00;100952.34;5080300;28;20029;-90
2021/03/19 01:53:57;;;;;;;;;;;;;;;-1.74;100.00;100943.16;5056706;28;20033;-91
2021/03/19 01:57:00;;;;;;;38.10;20.05;;;;;;;-1.64;100.00;100951.88;5069769;28;19919;-91
2021/03/19 02:00:04;;;;;;;32.83;18.83;;;;;;;-1.55;100.00;100955.53;5087273;28;20039;-90
2021/03/19 02:03:07;;;;;;;36.97;19.25;;;;;;;-1.78;100.00;100958.19;5094523;28;20052;-91
2021/03/19 02:05:51;;;;;;;;;;;;;;;-1.90;100.00;100946.13;5086971;28;20031;-92
2021/03/19 02:08:54;;;;;;;39.03;19.17;;;;;;;-1.83;100.00;100960.31;5073696;28;19919;-91
2021/03/19 02:11:38;;;;;;;;;;;;;;;-1.87;100.00;100957.13;5063787;28;20041;-91
2021/03/19 02:14:41;;;;;;;37.95;19.27;;;;;;;-1.89;100.00;100959.03;5075920;28;19912;-90
2021/03/19 02:17:25;;;;;;;;;;;;;;;-1.87;100.00;100969.31;5070440;28;20066;-91
2021/03/19 02:20:28;;;;;;;64.20;30.45;;;;;;;-1.83;100.00;100962.09;5062678;28;19962;-91
2021/03/19 02:23:31;;;;;;;80.45;34.15;;;;;;;-1.83;100.00;100967.31;5057433;28;20035;-90
2021/03/19 02:26:14;;;;;;;;;;;;;;;-1.79;100.00;100976.53;5081073;28;20489;-91
2021/03/19 02:29:18;;;;;;;66.80;31.60;;;;;;;-1.78;100.00;100973.81;5081859;28;20377;-91
2021/03/19 02:32:09;;;;;;;71.72;29.63;;;;;;;-1.71;100.00;100971.56;5079546;28;20096;-91
2021/03/19 02:34:45;;;;;;;60.17;27.73;;;;;;;-1.73;100.00;100976.03;5083858;28;20036;-91
2021/03/19 02:37:18;;;;;;;63.17;29.52;;;;;;;-1.92;100.00;100974.06;5070393;28;20111;-91
2021/03/19 02:39:43;;;;;;;52.25;26.83;;;;;;;-1.96;100.00;100965.66;5064182;28;20039;-91
2021/03/19 02:42:11;;;;;;;70.25;33.65;;;;;;;-1.83;100.00;100968.13;5081429;28;20564;-91
2021/03/19 02:44:37;;;;;;;71.88;32.50;;;;;;;-1.97;100.00;100968.38;5079367;28;20032;-90
2021/03/19 02:47:04;;;;;;;54.80;27.98;;;;;;;-2.05;100.00;100968.16;5081701;28;20122;-91
2021/03/19 02:49:30;;;;;;;53.35;26.42;;;;;;;-2.10;100.00;100965.88;5075171;28;20032;-91
2021/03/19 02:51:55;;;;;;;58.33;28.40;;;;;;;-2.18;100.00;100969.09;5078413;28;20035;-91
2021/03/19 02:54:22;;;;;;;58.15;28.50;;;;;;;-2.10;100.00;100968.50;5062151;28;20033;-91
2021/03/19 02:56:47;;;;;;;57.63;28.52;;;;;;;-2.27;100.00;100968.94;5061621;28;20029;-90
2021/03/19 02:59:13;;;;;;;51.42;26.10;;;;;;;-2.24;100.00;100966.09;5069438;28;20038;-90
2021/03/19 03:01:39;;;;;;;51.25;26.30;;;;;;;-2.41;100.00;100964.78;5063740;28;20131;-91
2021/03/19 03:04:04;;;;;;;54.65;27.48;;;;;;;-2.26;100.00;100966.22;5062982;28;20047;-91
2021/03/19 03:06:40;;;;;;;56.78;26.15;;;;;;;-2.25;100.00;100967.06;5076295;28;20039;-90
2021/03/19 03:09:08;;;;;;;50.25;25.50;;;;;;;-2.34;100.00;100971.19;5078389;28;20058;-91
2021/03/19 03:11:36;;;;;;;56.78;28.35;;;;;;;-2.27;100.00;100964.56;5096522;22;20487;-77
2021/03/19 03:14:04;;;;;;;57.40;29.77;;;;;;;-2.27;100.00;100961.94;5097463;28;20028;-77
2021/03/19 03:16:30;;;;;;;61.83;31.40;;;;;;;-2.25;100.00;100965.28;5093447;28;20594;-77
2021/03/19 03:18:55;;;;;;;56.50;27.67;;;;;;;-2.34;100.00;100959.00;5085912;28;20130;-78
2021/03/19 03:21:21;;;;;;;50.47;26.48;;;;;;;-2.36;100.00;100962.66;5081861;28;20578;-77
2021/03/19 03:23:46;;;;;;;52.83;25.20;;;;;;;-2.23;100.00;100967.78;5080692;28;20503;-77
2021/03/19 03:26:12;;;;;;;46.78;24.50;;;;;;;-2.24;100.00;100968.72;5102731;28;20028;-77
2021/03/19 03:28:37;;;;;;;52.10;27.35;;;;;;;-2.25;100.00;100970.47;5101711;28;20447;-77
2021/03/19 03:31:02;;;;;;;51.35;28.23;;;;;;;-2.39;100.00;100974.16;5092072;28;20455;-77
2021/03/19 03:33:28;;;;;;;58.22;28.48;;;;;;;-2.35;100.00;100969.53;5098091;28;20032;-77
2021/03/19 03:35:53;;;;;;;63.10;33.00;;;;;;;-2.32;100.00;100974.50;5080774;28;20047;-77
2021/03/19 03:38:24;;;;;;;73.32;37.90;;;;;;;-2.25;100.00;100974.88;5082319;28;20043;-77
2021/03/19 03:41:15;;;;;;;70.65;37.65;;;;;;;-2.23;100.00;100979.00;5082767;28;20031;-77
2021/03/19 03:43:41;;;;;;;69.25;35.58;;;;;;;-2.40;100.00;100972.47;5098334;28;20384;-77
2021/03/19 03:46:11;;;;;;;66.50;34.85;;;;;;;-2.37;100.00;100982.66;5100537;28;20032;-78
2021/03/19 03:48:36;;;;;;;72.50;36.08;;;;;;;-2.34;100.00;100984.19;5087270;28;20037;-77
2021/03/19 03:51:06;;;;;;;78.45;39.67;;;;;;;-2.46;100.00;100977.31;5081822;28;20042;-77
2021/03/19 03:53:32;;;;;;;59.85;31.50;;;;;;;-2.42;100.00;100978.72;5086524;28;20420;-77
2021/03/19 03:55:58;;;;;;;63.03;34.17;;;;;;;-2.37;100.00;100974.84;5082921;28;20066;-77
2021/03/19 03:58:24;;;;;;;58.47;29.20;;;;;;;-2.63;100.00;100978.56;5097086;28;20028;-77
2021/03/19 04:00:49;;;;;;;53.55;28.23;;;;;;;-2.53;100.00;100975.16;5080610;28;20492;-77
2021/03/19 04:03:14;;;;;;;55.75;29.00;;;;;;;-2.31;100.00;100976.97;5078945;28;20491;-77
2021/03/19 04:05:43;;;;;;;53.63;26.13;;;;;;;-2.32;100.00;100975.31;5081054;28;20036;-77
2021/03/19 04:08:10;;;;;;;53.97;26.45;;;;;;;-2.53;100.00;100975.16;5086920;28;20020;-77
2021/03/19 04:10:37;;;;;;;50.83;26.58;;;;;;;-2.51;100.00;100969.88;5079055;28;20046;-77
2021/03/19 04:13:03;;;;;;;53.85;25.67;;;;;;;-2.50;100.00;100975.91;5080517;28;20043;-77
2021/03/19 04:15:30;;;;;;;52.40;31.40;;;;;;;-2.56;100.00;100974.56;5081746;28;20040;-77
2021/03/19 04:17:58;;;;;;;55.72;26.85;;;;;;;-2.79;100.00;100978.88;5099328;28;20023;-77
2021/03/19 04:20:25;;;;;;;50.75;25.58;;;;;;;-2.66;100.00;100970.97;5078024;28;20043;-77
2021/03/19 04:22:51;;;;;;;49.00;25.08;;;;;;;-2.62;100.00;100978.47;5078487;28;20032;-77
2021/03/19 04:25:17;;;;;;;47.85;23.77;;;;;;;-2.50;100.00;100971.50;5090938;28;20035;-77
2021/03/19 04:27:49;;;;;;;45.72;24.40;;;;;;;-2.46;100.00;100969.50;5088150;28;20039;-77
2021/03/19 04:30:24;;;;;;;72.43;34.97;;;;;;;-2.46;100.00;100977.31;5089930;28;20036;-77
2021/03/19 04:32:51;;;;;;;55.03;27.30;;;;;;;-2.57;100.00;100975.53;5099828;28;20035;-77
2021/03/19 04:35:18;;;;;;;54.38;25.83;;;;;;;-2.71;100.00;100976.53;5086913;28;20479;-77
2021/03/19 04:37:44;;;;;;;56.42;26.35;;;;;;;-2.88;100.00;100985.56;5096797;28;20084;-77
2021/03/19 04:40:10;;;;;;;53.75;25.95;;;;;;;-2.54;100.00;100980.50;5088434;28;20028;-77
2021/03/19 04:42:36;;;;;;;50.17;25.05;;;;;;;-2.64;100.00;100980.34;5093287;28;20036;-77
2021/03/19 04:45:03;;;;;;;53.30;27.13;;;;;;;-2.57;100.00;100981.56;5096072;28;20093;-77
2021/03/19 04:47:28;;;;;;;53.05;26.73;;;;;;;-2.61;100.00;100979.28;5080657;28;20067;-77
2021/03/19 04:49:54;;;;;;;54.97;28.85;;;;;;;-2.56;100.00;100982.38;5078235;28;20544;-77
2021/03/19 04:52:19;;;;;;;59.38;29.25;;;;;;;-2.59;100.00;100980.84;5090003;28;20028;-77
2021/03/19 04:54:45;;;;;;;59.85;28.60;;;;;;;-2.46;100.00;100977.31;5080775;28;20020;-77
2021/03/19 04:57:10;;;;;;;54.58;28.23;;;;;;;-2.42;100.00;100973.53;5086597;28;20032;-78
2021/03/19 04:59:36;;;;;;;52.80;29.25;;;;;;;-2.48;100.00;100974.84;5094962;28;20035;-78
2021/03/19 05:02:02;;;;;;;55.80;29.23;;;;;;;-2.50;100.00;100987.13;5089640;28;20036;-77
2021/03/19 05:04:28;;;;;;;71.30;35.50;;;;;;;-2.48;100.00;100989.59;5090284;28;20090;-77
2021/03/19 05:07:01;;;;;;;76.07;37.13;;;;;;;-2.47;100.00;100978.25;5100327;28;20100;-77
2021/03/19 05:09:28;;;;;;;92.63;41.83;;;;;;;-2.33;100.00;100984.09;5083153;28;20043;-77
2021/03/19 05:11:54;;;;;;;78.88;35.10;;;;;;;-2.21;100.00;100976.28;5077090;28;20063;-77
2021/03/19 05:14:20;;;;;;;79.68;38.38;;;;;;;-2.38;100.00;100980.19;5086105;28;20461;-77
2021/03/19 05:16:46;;;;;;;79.28;37.58;;;;;;;-2.36;100.00;100994.72;5101347;28;20028;-77
2021/03/19 05:19:12;;;;;;;78.30;38.85;;;;;;;-2.15;100.00;100994.88;5102615;28;20129;-77
2021/03/19 05:21:38;;;;;;;83.55;41.53;;;;;;;-2.20;100.00;101002.19;5102283;28;20027;-77
2021/03/19 05:24:04;;;;;;;82.38;37.17;;;;;;;-2.07;100.00;100996.88;5101543;28;20040;-77
2021/03/19 05:26:29;;;;;;;82.70;39.95;;;;;;;-1.91;100.00;101004.34;5101209;28;20472;-77
2021/03/19 05:28:55;;;;;;;72.07;34.00;;;;;;;-1.78;100.00;100996.44;5083389;28;20025;-77
2021/03/19 05:31:20;;;;;;;73.50;35.05;;;;;;;-1.81;100.00;101001.88;5103081;28;20057;-77
2021/03/19 05:33:46;;;;;;;70.82;31.98;;;;;;;-1.96;100.00;100999.50;5089634;28;20084;-77
2021/03/19 05:36:14;;;;;;;60.47;29.85;;;;;;;-1.68;100.00;100998.19;5077230;28;20039;-77
2021/03/19 05:38:40;;;;;;;60.03;28.17;;;;;;;-1.63;100.00;101003.06;5082304;28;20020;-77
2021/03/19 05:41:06;;;;;;;69.13;29.98;;;;;;;-1.75;100.00;101001.41;5084103;28;20028;-77
2021/03/19 05:43:36;;;;;;;65.65;30.48;;;;;;;-1.39;100.00;101003.72;5084262;28;20133;-77
2021/03/19 05:46:06;;;;;;;70.40;31.52;;;;;;;-1.23;100.00;101003.31;5080688;28;20028;-77
2021/03/19 05:49:15;;;;;;;73.57;34.40;;;;;;;-1.28;100.00;101002.84;5075800;28;20313;-77
2021/03/19 05:51:47;;;;;;;77.00;35.05;;;;;;;-1.09;100.00;101006.59;5057702;28;20035;-77
2021/03/19 05:54:36;;;;;;;91.47;40.60;;;;;;;-1.00;100.00;101000.63;5105544;28;20114;-77
2021/03/19 05:57:04;;;;;;;117.43;54.35;;;;;;;-0.79;100.00;100998.06;5099725;28;20027;-77
2021/03/19 05:59:37;;;;;;;105.10;51.33;;;;;;;-0.80;100.00;100997.25;5099426;28;20483;-77
2021/03/19 06:02:17;;;;;;;121.50;54.90;;;;;;;-0.65;100.00;101003.00;5100674;27;20045;-77
2021/03/19 06:04:43;;;;;;;120.35;55.40;;;;;;;-0.49;100.00;101002.56;5089194;28;20039;-77
2021/03/19 06:07:09;;;;;;;122.65;56.97;;;;;;;-0.47;100.00;101001.47;5076989;28;20024;-77
2021/03/19 06:09:41;;;;;;;115.65;53.75;;;;;;;-0.47;100.00;101009.31;5076770;28;20368;-77
2021/03/19 06:12:16;;;;;;;99.88;49.15;;;;;;;-0.36;100.00;101012.81;5098779;28;20039;-77
2021/03/19 06:14:51;;;;;;;105.60;51.75;;;;;;;-0.79;100.00;101014.53;5100614;28;20029;-77
2021/03/19 06:17:29;;;;;;;111.40;53.47;;;;;;;-0.65;100.00;101010.00;5087916;28;20463;-77
2021/03/19 06:20:00;;;;;;;128.73;59.38;;;;;;;-0.68;100.00;101013.69;5080482;28;20038;-77
2021/03/19 06:22:38;;;;;;;125.53;59.87;;;;;;;-0.17;100.00;101023.38;5092838;28;20049;-77
2021/03/19 06:25:26;;;;;;;124.93;60.05;;;;;;;-0.44;100.00;101021.28;5089594;28;20024;-77
2021/03/19 06:27:54;;;;;;;146.52;66.28;;;;;;;0.09;100.00;101028.16;5079030;28;20376;-77
2021/03/19 06:30:29;;;;;;;158.20;74.65;;;;;;;0.40;100.00;101029.84;5084489;28;20036;-77
2021/03/19 06:33:00;;;;;;;192.38;103.15;;;;;;;0.16;100.00;101037.16;5096838;28;20396;-77
2021/03/19 06:35:31;;;;;;;128.80;66.53;;;;;;;0.60;100.00;101029.88;5102174;28;20019;-77
2021/03/19 06:38:34;;;;;;;118.10;65.53;;;;;;;1.14;100.00;101039.88;5085763;28;20050;-77
2021/03/19 06:41:18;;;;;;;;;;;;;;;1.30;100.00;101038.50;5080633;28;20134;-77
2021/03/19 06:43:44;;;;;;;93.10;52.72;;;;;;;1.34;100.00;101034.69;5102439;28;19916;-77
2021/03/19 06:46:11;;;;;;;63.65;36.92;;;;;;;1.56;100.00;101034.38;5083462;28;20105;-77
2021/03/19 06:48:54;;;;;;;106.95;61.08;;;;;;;1.69;100.00;101033.25;5074665;28;20020;-77
2021/03/19 06:51:41;;;;;;;49.80;29.40;;;;;;;1.52;100.00;101040.03;5096852;28;20023;-77
2021/03/19 06:54:09;;;;;;;51.55;29.75;;;;;;;1.69;100.00;101025.41;5083372;28;20020;-77
2021/03/19 06:56:35;;;;;;;60.53;35.20;;;;;;;1.78;100.00;101035.84;5091057;28;20035;-77
2021/03/19 06:59:21;;;;;;;60.53;34.88;;;;;;;2.02;100.00;101024.91;5091641;28;20102;-77
2021/03/19 07:01:47;;;;;;;54.75;34.25;;;;;;;2.06;100.00;101028.09;5076888;28;20021;-77
2021/03/19 07:04:31;;;;;;;44.83;27.75;;;;;;;2.00;100.00;101023.41;5079477;28;20035;-77
2021/03/19 07:07:33;;;;;;;83.65;51.35;;;;;;;2.22;100.00;101027.47;5077151;28;20075;-77
2021/03/19 07:10:30;;;;;;;45.28;27.92;;;;;;;1.86;100.00;101023.88;5101153;28;20106;-77
2021/03/19 07:13:33;;;;;;;40.10;25.80;;;;;;;2.16;100.00;101026.25;5034099;28;20045;-77
2021/03/19 07:16:07;;;;;;;27.70;24.70;;;;;;;2.46;100.00;101022.53;5092882;28;20122;-77
2021/03/19 07:18:54;;;;;;;28.17;24.48;;;;;;;2.18;100.00;101018.22;5079504;28;20400;-77
2021/03/19 07:21:47;;;;;;;27.65;23.38;;;;;;;2.33;100.00;101014.19;5079680;28;20456;-77
2021/03/19 07:24:29;;;;;;;31.25;28.27;;;;;;;2.72;100.00;101014.81;5081712;28;20450;-77
2021/03/19 07:27:02;;;;;;;30.92;27.63;;;;;;;2.83;100.00;101011.16;5081157;28;20023;-77
2021/03/19 07:29:36;;;;;;;31.50;28.55;;;;;;;2.52;100.00;101010.66;5096482;28;20052;-77
2021/03/19 07:32:33;;;;;;;29.25;26.23;;;;;;;3.28;100.00;101001.56;5079467;28;20032;-77
2021/03/19 07:35:11;;;;;;;29.45;26.45;;;;;;;3.37;100.00;101008.53;5075776;28;20055;-77
2021/03/19 07:38:03;;;;;;;30.55;27.40;;;;;;;3.40;100.00;101009.06;5079628;28;20093;-77
2021/03/19 07:40:32;;;;;;;35.38;32.33;;;;;;;3.57;100.00;101006.53;5077258;28;20113;-77
2021/03/19 07:43:31;;;;;;;36.13;32.88;;;;;;;3.27;100.00;101015.66;5093165;28;20032;-77
2021/03/19 07:46:19;;;;;;;33.97;31.08;;;;;;;3.37;100.00;101001.47;5086777;28;20028;-77
2021/03/19 07:48:44;;;;;;;34.47;31.15;;;;;;;3.64;100.00;101010.22;5072771;28;20388;-77
2021/03/19 07:51:34;;;;;;;39.03;35.72;;;;;;;4.04;100.00;101006.19;5080186;28;20020;-77
2021/03/19 07:54:18;;;;;;;39.42;36.03;;;;;;;4.27;100.00;101006.50;5075923;28;20477;-77
2021/03/19 07:56:56;;;;;;;37.67;34.47;;;;;;;4.17;100.00;101009.22;5079734;28;20044;-77
2021/03/19 07:59:46;;;;;;;37.25;34.20;;;;;;;4.47;100.00;101010.50;5075753;28;20039;-77
2021/03/19 08:02:12;;;;;;;41.08;37.67;;;;;;;3.86;100.00;100998.38;5079242;28;20123;-77
2021/03/19 08:04:49;;;;;;;43.50;39.95;;;;;;;4.43;100.00;101003.09;5082863;28;20161;-77
2021/03/19 08:07:21;;;;;;;42.63;39.33;;;;;;;4.63;100.00;101003.63;5079553;28;20036;-77
2021/03/19 08:10:00;;;;;;;42.53;39.30;;;;;;;4.87;100.00;101003.72;5081510;28;20028;-77
2021/03/19 08:12:31;;;;;;;45.92;42.53;;;;;;;4.46;100.00;100994.88;5085822;28;20059;-77
2021/03/19 08:15:14;;;;;;;43.25;39.58;;;;;;;4.56;100.00;100996.38;5078763;28;20119;-77
2021/03/19 08:17:57;;;;;;;34.38;31.67;;;;;;;4.15;100.00;101002.47;5084999;28;20065;-77
2021/03/19 08:20:22;;;;;;;;;;;;;;;4.75;100.00;101002.34;5101746;28;20065;-77
2021/03/19 08:23:03;;;;;;;33.88;31.23;;;;;;;5.19;100.00;101000.28;5085358;28;19955;-77
2021/03/19 08:25:34;;;;;;;33.63;30.83;;;;;;;5.14;100.00;100997.31;5086821;28;20100;-77
2021/03/19 08:28:05;;;;;;;36.57;33.47;;;;;;;4.53;100.00;100994.06;5096238;28;20028;-77
2021/03/19 08:30:58;;;;;;;33.22;30.35;;;;;;;5.46;100.00;100990.44;5101084;28;20028;-77
2021/03/19 08:34:03;;;;;;;38.10;35.25;;;;;;;5.38;100.00;100991.25;5094673;28;20349;-77
2021/03/19 08:36:42;;;;;;;53.83;50.10;;;;;;;5.62;100.00;100995.66;5101841;28;20045;-77
2021/03/19 08:39:23;;;;;;;44.60;41.30;;;;;;;5.78;100.00;100994.00;5098630;28;20094;-77
2021/03/19 08:41:55;;;;;;;41.65;38.55;;;;;;;5.68;100.00;100987.09;5085773;28;20023;-77
2021/03/19 08:44:26;;;;;;;42.10;39.10;;;;;;;5.76;100.00;100988.91;5103345;28;20055;-77
2021/03/19 08:47:44;;;;;;;46.42;43.28;;;;;;;5.93;100.00;100987.06;5103595;28;20047;-77
2021/03/19 08:50:38;;;;;;;35.13;32.80;;;;;;;5.79;100.00;100985.94;5064569;28;20041;-77
2021/03/19 08:53:06;;;;;;;44.15;40.95;;;;;;;5.45;100.00;100997.50;5078769;28;20038;-77
2021/03/19 08:55:35;;;;;;;42.22;39.45;;;;;;;5.65;100.00;100982.16;5096169;28;20024;-77
2021/03/19 08:58:25;;;;;;;42.42;39.72;;;;;;;5.01;100.00;100982.00;5102634;28;20023;-77
2021/03/19 09:00:57;;;;;;;41.70;38.75;;;;;;;5.78;100.00;100983.47;5095679;28;20027;-77
2021/03/19 09:03:41;;;;;;;36.22;33.72;;;;;;;5.28;100.00;100974.78;5081778;28;20028;-77
2021/03/19 09:06:07;;;;;;;33.60;31.10;;;;;;;6.03;100.00;100986.91;5089169;28;20066;-77
2021/03/19 09:08:51;;;;;;;32.38;30.27;;;;;;;6.46;100.00;100990.03;5076295;28;20028;-77
2021/03/19 09:11:23;;;;;;;32.40;30.10;;;;;;;6.11;100.00;100984.22;5086280;28;20043;-77
2021/03/19 09:14:01;;;;;;;33.25;30.75;;;;;;;6.41;100.00;100986.09;5103748;28;20031;-77
2021/03/19 09:16:57;;;;;;;33.00;30.83;;;;;;;7.23;100.00;100984.75;5103914;28;20046;-77
2021/03/19 09:19:28;;;;;;;37.33;34.53;;;;;;;6.72;100.00;100981.81;5085872;28;20052;-77
2021/03/19 09:22:13;;;;;;;41.10;38.20;;;;;;;7.78;100.00;100975.69;5085595;28;20032;-77
2021/03/19 09:24:38;;;;;;;37.78;35.15;;;;;;;7.46;100.00;100980.28;5084798;28;20024;-77
2021/03/19 09:27:30;;;;;;;37.08;34.50;;;;;;;7.26;100.00;100987.03;5089608;28;20377;-77
2021/03/19 09:30:13;;;;;;;39.72;36.88;;;;;;;5.94;100.00;100976.38;5084507;28;20097;-77
2021/03/19 09:32:50;;;;;;;35.53;32.78;;;;;;;6.48;100.00;100986.25;5085843;28;20404;-77
2021/03/19 09:35:51;;;;;;;35.63;33.20;;;;;;;6.17;100.00;100983.53;5086673;28;20080;-77
2021/03/19 09:38:22;;;;;;;37.78;35.17;;;;;;;6.69;100.00;100990.06;5023986;28;20029;-77
2021/03/19 09:40:56;;;;;;;33.70;31.33;;;;;;;5.71;100.00;100992.03;5085316;28;20492;-77
2021/03/19 09:43:40;;;;;;;35.38;32.78;;;;;;;5.96;100.00;100992.84;5106543;28;20047;-77
2021/03/19 09:46:18;;;;;;;34.42;31.95;;;;;;;6.53;100.00;100983.06;5103346;28;20365;-77
2021/03/19 09:48:59;;;;;;;33.97;31.48;;;;;;;6.00;100.00;100992.53;5094290;28;20056;-77
2021/03/19 09:51:44;;;;;;;34.08;31.58;;;;;;;5.62;100.00;100990.41;5102248;28;20034;-77
2021/03/19 09:54:36;;;;;;;36.67;33.92;;;;;;;6.84;100.00;100997.09;5087154;28;20475;-75
2021/03/19 09:57:11;;;;;;;34.85;32.22;;;;;;;5.85;100.00;100995.00;5093407;28;20387;-77
2021/03/19 09:59:40;;;;;;;33.78;31.50;;;;;;;6.47;100.00;100996.94;5085598;28;20109;-75
2021/03/19 10:02:28;;;;;;;34.03;31.65;;;;;;;7.16;100.00;100997.03;5075163;28;20037;-75
2021/03/19 10:04:53;;;;;;;36.08;33.67;;;;;;;7.49;100.00;100987.03;5093912;28;20039;-75
2021/03/19 10:07:25;;;;;;;37.10;34.33;;;;;;;7.52;100.00;100990.13;5105282;28;20024;-75
2021/03/19 10:09:57;;;;;;;36.77;34.30;;;;;;;6.64;100.00;100990.59;5105997;28;20452;-77
2021/03/19 10:12:32;;;;;;;34.42;31.95;;;;;;;6.67;100.00;101003.47;5086868;28;20302;-77
2021/03/19 10:15:19;;;;;;;35.30;32.90;;;;;;;6.51;100.00;101003.56;5077870;28;20028;-77
2021/03/19 10:17:51;;;;;;;47.70;44.38;;;;;;;7.42;100.00;100994.84;5116222;27;20449;-75
2021/03/19 10:20:30;;;;;;;51.03;47.58;;;;;;;8.06;100.00;100991.75;5081771;28;20019;-75
2021/03/19 10:23:08;;;;;;;51.22;47.92;;;;;;;7.65;100.00;100993.97;5097754;28;20479;-75
2021/03/19 10:25:43;;;;;;;55.95;52.35;;;;;;;8.39;100.00;100996.69;5094807;28;20031;-75
2021/03/19 10:28:11;;;;;;;55.58;52.25;;;;;;;8.23;100.00;100995.03;5101568;28;20028;-75
2021/03/19 10:30:45;;;;;;;61.15;57.60;;;;;;;8.92;100.00;100995.44;5088211;28;20136;-75
2021/03/19 10:33:16;;;;;;;51.55;48.45;;;;;;;9.24;100.00;100992.50;5075152;28;20178;-75
2021/03/19 10:35:51;;;;;;;56.33;53.22;;;;;;;8.70;100.00;101001.75;5104165;28;20028;-75
2021/03/19 10:38:45;;;;;;;60.38;56.67;;;;;;;7.74;100.00;101000.84;5083525;28;20041;-75
2021/03/19 10:41:39;;;;;;;58.08;54.13;;;;;;;8.27;100.00;100997.13;5103088;28;20028;-75
2021/03/19 10:44:27;;;;;;;49.95;46.67;;;;;;;7.50;100.00;100986.88;5098754;28;20065;-75
2021/03/19 10:47:22;;;;;;;39.30;36.40;;;;;;;7.86;100.00;100986.16;5079531;28;20038;-75
2021/03/19 10:49:56;;;;;;;36.78;34.55;;;;;;;7.51;100.00;100987.69;5085341;28;20020;-75
2021/03/19 10:52:47;;;;;;;38.78;36.30;;;;;;;7.28;100.00;100991.16;5075835;28;20552;-75
2021/03/19 10:55:17;;;;;;;40.28;37.28;;;;;;;6.67;100.00;100989.44;5103653;28;20024;-75
2021/03/19 10:57:43;;;;;;;38.03;35.42;;;;;;;6.52;100.00;100976.97;5084203;28;20528;-75
2021/03/19 11:00:31;;;;;;;34.88;32.40;;;;;;;6.60;100.00;100976.94;5083697;28;20051;-75
2021/03/19 11:03:00;;;;;;;34.92;32.38;;;;;;;7.05;100.00;100979.78;5102163;28;20046;-75
2021/03/19 11:05:26;;;;;;;37.13;34.72;;;;;;;7.39;100.00;100986.47;5079137;28;20028;-75
2021/03/19 11:07:52;;;;;;;36.92;34.65;;;;;;;7.85;100.00;100987.19;5091077;28;20027;-75
2021/03/19 11:10:20;;;;;;;41.63;38.63;;;;;;;7.97;100.00;100982.25;5104551;28;20024;-75
2021/03/19 11:12:51;;;;;;;40.55;37.92;;;;;;;7.92;100.00;100980.16;5083025;28;20051;-75
2021/03/19 11:15:18;;;;;;;34.90;32.83;;;;;;;8.01;100.00;100979.06;5084860;28;20373;-75
2021/03/19 11:17:44;;;;;;;34.97;32.70;;;;;;;7.47;100.00;100975.81;5100038;28;20036;-75
2021/03/19 11:20:16;;;;;;;33.60;31.13;;;;;;;7.20;100.00;100974.53;5086172;28;20040;-75
2021/03/19 11:22:44;;;;;;;52.38;48.25;;;;;;;6.85;100.00;100984.72;5094145;28;20031;-75
2021/03/19 11:25:24;;;;;;;59.70;54.63;;;;;;;6.84;100.00;100977.78;5090774;28;20028;-75
2021/03/19 11:27:51;;;;;;;59.63;54.35;;;;;;;6.73;100.00;100970.25;5074450;28;20060;-75
2021/03/19 11:30:48;;;;;;;58.10;52.88;;;;;;;6.72;100.00;100968.59;5075890;28;20040;-75
2021/03/19 11:33:17;;;;;;;58.90;53.70;;;;;;;7.10;100.00;100972.97;5107270;28;20065;-75
2021/03/19 11:36:02;;;;;;;56.47;51.47;;;;;;;7.19;100.00;100964.97;5084516;28;20025;-75
2021/03/19 11:38:38;;;;;;;53.88;48.95;;;;;;;6.86;100.00;100960.75;5107389;28;20028;-75